sensor_id;sensor_type;location;lat;lon;timestamp;P1;durP1;ratioP1;P2;durP2;ratioP2
65377;SDS011;51982;51.042;13.806;2022-10-26T00:03:35;6.97;;;3.08;;
65377;SDS011;51982;51.042;13.806;2022-10-26T00:06:03;5.05;;;3.08;;
65377;SDS011;51982;51.042;13.806;2022-10-26T00:08:30;8.43;;;3.22;;
65377;SDS011;51982;51.042;13.806;2022-10-26T00:10:56;5.28;;;2.88;;
65377;SDS011;51982;51.042;13.806;2022-10-26T00:13:21;6.43;;;2.80;;
65377;SDS011;51982;51.042;13.806;2022-10-26T00:15:46;5.25;;;2.88;;
65377;SDS011;51982;51.042;13.806;2022-10-26T00:18:12;6.03;;;2.80;;
65377;SDS011;51982;51.042;13.806;2022-10-26T00:20:37;5.78;;;2.70;;
65377;SDS011;51982;51.042;13.806;2022-10-26T00:23:02;6.20;;;2.80;;
65377;SDS011;51982;51.042;13.806;2022-10-26T00:25:27;7.82;;;3.20;;
65377;SDS011;51982;51.042;13.806;2022-10-26T00:27:53;6.90;;;3.20;;
65377;SDS011;51982;51.042;13.806;2022-10-26T00:30:18;5.18;;;2.90;;
65377;SDS011;51982;51.042;13.806;2022-10-26T00:32:43;7.35;;;3.05;;
65377;SDS011;51982;51.042;13.806;2022-10-26T00:35:08;4.93;;;3.20;;
65377;SDS011;51982;51.042;13.806;2022-10-26T00:37:34;4.80;;;2.97;;
65377;SDS011;51982;51.042;13.806;2022-10-26T00:39:59;5.13;;;3.05;;
65377;SDS011;51982;51.042;13.806;2022-10-26T00:42:24;5.50;;;3.30;;
65377;SDS011;51982;51.042;13.806;2022-10-26T00:44:56;6.13;;;3.35;;
65377;SDS011;51982;51.042;13.806;2022-10-26T00:47:44;5.32;;;3.03;;
65377;SDS011;51982;51.042;13.806;2022-10-26T00:50:20;6.07;;;2.90;;
65377;SDS011;51982;51.042;13.806;2022-10-26T00:52:49;9.50;;;3.47;;
65377;SDS011;51982;51.042;13.806;2022-10-26T00:55:17;8.13;;;3.60;;
65377;SDS011;51982;51.042;13.806;2022-10-26T00:57:48;8.82;;;3.03;;
65377;SDS011;51982;51.042;13.806;2022-10-26T01:00:15;8.85;;;3.20;;
65377;SDS011;51982;51.042;13.806;2022-10-26T01:02:41;5.85;;;3.20;;
65377;SDS011;51982;51.042;13.806;2022-10-26T01:05:08;6.90;;;3.03;;
65377;SDS011;51982;51.042;13.806;2022-10-26T01:07:34;8.30;;;3.38;;
65377;SDS011;51982;51.042;13.806;2022-10-26T01:10:00;10.15;;;3.13;;
65377;SDS011;51982;51.042;13.806;2022-10-26T01:12:26;7.75;;;3.05;;
65377;SDS011;51982;51.042;13.806;2022-10-26T01:14:51;10.95;;;3.25;;
65377;SDS011;51982;51.042;13.806;2022-10-26T01:21:07;4.90;;;3.03;;
65377;SDS011;51982;51.042;13.806;2022-10-26T01:23:21;5.10;;;3.20;;
65377;SDS011;51982;51.042;13.806;2022-10-26T01:31:42;6.40;;;3.00;;
65377;SDS011;51982;51.042;13.806;2022-10-26T01:34:21;7.03;;;3.20;;
65377;SDS011;51982;51.042;13.806;2022-10-26T01:36:56;6.60;;;3.10;;
65377;SDS011;51982;51.042;13.806;2022-10-26T01:39:40;11.23;;;3.22;;
65377;SDS011;51982;51.042;13.806;2022-10-26T01:42:14;6.85;;;3.13;;
65377;SDS011;51982;51.042;13.806;2022-10-26T01:44:44;7.55;;;3.40;;
65377;SDS011;51982;51.042;13.806;2022-10-26T01:47:13;6.45;;;3.17;;
65377;SDS011;51982;51.042;13.806;2022-10-26T01:49:41;4.47;;;3.00;;
65377;SDS011;51982;51.042;13.806;2022-10-26T01:52:10;7.82;;;3.22;;
65377;SDS011;51982;51.042;13.806;2022-10-26T01:54:36;9.95;;;3.67;;
65377;SDS011;51982;51.042;13.806;2022-10-26T01:57:03;6.63;;;3.30;;
65377;SDS011;51982;51.042;13.806;2022-10-26T02:05:09;6.05;;;3.38;;
65377;SDS011;51982;51.042;13.806;2022-10-26T02:07:44;6.93;;;3.40;;
65377;SDS011;51982;51.042;13.806;2022-10-26T02:10:24;4.85;;;3.53;;
65377;SDS011;51982;51.042;13.806;2022-10-26T02:18:22;6.78;;;3.08;;
65377;SDS011;51982;51.042;13.806;2022-10-26T02:20:56;5.18;;;3.08;;
65377;SDS011;51982;51.042;13.806;2022-10-26T02:23:27;6.15;;;3.25;;
65377;SDS011;51982;51.042;13.806;2022-10-26T02:25:56;5.88;;;3.45;;
65377;SDS011;51982;51.042;13.806;2022-10-26T02:28:32;6.13;;;3.20;;
65377;SDS011;51982;51.042;13.806;2022-10-26T02:31:00;8.63;;;3.30;;
65377;SDS011;51982;51.042;13.806;2022-10-26T02:33:29;5.15;;;3.42;;
65377;SDS011;51982;51.042;13.806;2022-10-26T02:35:58;9.50;;;3.55;;
65377;SDS011;51982;51.042;13.806;2022-10-26T02:38:26;5.45;;;3.80;;
65377;SDS011;51982;51.042;13.806;2022-10-26T02:40:54;9.48;;;3.63;;
65377;SDS011;51982;51.042;13.806;2022-10-26T02:43:20;6.25;;;3.47;;
65377;SDS011;51982;51.042;13.806;2022-10-26T02:45:53;5.32;;;3.78;;
65377;SDS011;51982;51.042;13.806;2022-10-26T02:48:23;9.82;;;3.28;;
65377;SDS011;51982;51.042;13.806;2022-10-26T02:53:38;8.43;;;4.20;;
65377;SDS011;51982;51.042;13.806;2022-10-26T02:56:12;7.22;;;3.58;;
65377;SDS011;51982;51.042;13.806;2022-10-26T02:58:42;8.55;;;3.75;;
65377;SDS011;51982;51.042;13.806;2022-10-26T03:01:11;8.07;;;4.40;;
65377;SDS011;51982;51.042;13.806;2022-10-26T03:03:37;7.72;;;4.05;;
65377;SDS011;51982;51.042;13.806;2022-10-26T03:06:02;5.55;;;3.58;;
65377;SDS011;51982;51.042;13.806;2022-10-26T03:08:28;7.15;;;3.92;;
65377;SDS011;51982;51.042;13.806;2022-10-26T03:10:53;7.28;;;3.53;;
65377;SDS011;51982;51.042;13.806;2022-10-26T03:13:18;11.38;;;3.65;;
65377;SDS011;51982;51.042;13.806;2022-10-26T03:15:44;6.43;;;3.90;;
65377;SDS011;51982;51.042;13.806;2022-10-26T03:18:09;10.85;;;3.63;;
65377;SDS011;51982;51.042;13.806;2022-10-26T03:20:34;8.68;;;3.85;;
65377;SDS011;51982;51.042;13.806;2022-10-26T03:23:00;9.95;;;3.95;;
65377;SDS011;51982;51.042;13.806;2022-10-26T03:25:25;8.82;;;3.90;;
65377;SDS011;51982;51.042;13.806;2022-10-26T03:27:57;9.77;;;3.83;;
65377;SDS011;51982;51.042;13.806;2022-10-26T03:30:23;10.43;;;4.03;;
65377;SDS011;51982;51.042;13.806;2022-10-26T03:32:49;8.38;;;3.53;;
65377;SDS011;51982;51.042;13.806;2022-10-26T03:35:15;10.60;;;4.10;;
65377;SDS011;51982;51.042;13.806;2022-10-26T03:37:40;8.32;;;4.18;;
65377;SDS011;51982;51.042;13.806;2022-10-26T03:40:05;12.10;;;4.10;;
65377;SDS011;51982;51.042;13.806;2022-10-26T03:42:38;11.75;;;4.45;;
65377;SDS011;51982;51.042;13.806;2022-10-26T03:45:04;12.82;;;5.40;;
65377;SDS011;51982;51.042;13.806;2022-10-26T03:47:30;12.50;;;5.22;;
65377;SDS011;51982;51.042;13.806;2022-10-26T03:49:55;8.75;;;4.68;;
65377;SDS011;51982;51.042;13.806;2022-10-26T03:52:20;9.55;;;4.55;;
65377;SDS011;51982;51.042;13.806;2022-10-26T03:54:48;8.60;;;4.28;;
65377;SDS011;51982;51.042;13.806;2022-10-26T03:57:13;10.25;;;4.28;;
65377;SDS011;51982;51.042;13.806;2022-10-26T03:59:38;10.02;;;4.78;;
65377;SDS011;51982;51.042;13.806;2022-10-26T04:02:03;15.25;;;4.28;;
65377;SDS011;51982;51.042;13.806;2022-10-26T04:04:29;11.38;;;4.53;;
65377;SDS011;51982;51.042;13.806;2022-10-26T04:06:54;6.72;;;4.28;;
65377;SDS011;51982;51.042;13.806;2022-10-26T04:09:19;9.70;;;4.28;;
65377;SDS011;51982;51.042;13.806;2022-10-26T04:11:44;10.38;;;4.40;;
65377;SDS011;51982;51.042;13.806;2022-10-26T04:14:10;6.90;;;4.55;;
65377;SDS011;51982;51.042;13.806;2022-10-26T04:16:35;6.15;;;4.32;;
65377;SDS011;51982;51.042;13.806;2022-10-26T04:19:00;7.38;;;4.45;;
65377;SDS011;51982;51.042;13.806;2022-10-26T04:21:25;7.70;;;3.97;;
65377;SDS011;51982;51.042;13.806;2022-10-26T04:23:51;7.97;;;4.50;;
65377;SDS011;51982;51.042;13.806;2022-10-26T04:26:16;7.45;;;4.32;;
65377;SDS011;51982;51.042;13.806;2022-10-26T04:28:41;6.60;;;4.25;;
65377;SDS011;51982;51.042;13.806;2022-10-26T04:31:06;10.57;;;4.80;;
65377;SDS011;51982;51.042;13.806;2022-10-26T04:33:32;8.05;;;4.47;;
65377;SDS011;51982;51.042;13.806;2022-10-26T04:35:58;10.85;;;4.55;;
65377;SDS011;51982;51.042;13.806;2022-10-26T04:38:25;11.43;;;4.50;;
65377;SDS011;51982;51.042;13.806;2022-10-26T04:40:50;10.23;;;4.60;;
65377;SDS011;51982;51.042;13.806;2022-10-26T04:43:15;8.70;;;4.70;;
65377;SDS011;51982;51.042;13.806;2022-10-26T04:45:40;8.70;;;4.85;;
65377;SDS011;51982;51.042;13.806;2022-10-26T04:48:07;11.30;;;4.35;;
65377;SDS011;51982;51.042;13.806;2022-10-26T04:50:35;9.95;;;4.47;;
65377;SDS011;51982;51.042;13.806;2022-10-26T04:53:00;12.98;;;4.60;;
65377;SDS011;51982;51.042;13.806;2022-10-26T04:55:26;8.18;;;4.95;;
65377;SDS011;51982;51.042;13.806;2022-10-26T04:57:51;7.25;;;4.30;;
65377;SDS011;51982;51.042;13.806;2022-10-26T05:00:16;13.88;;;5.28;;
65377;SDS011;51982;51.042;13.806;2022-10-26T05:02:42;7.15;;;4.22;;
65377;SDS011;51982;51.042;13.806;2022-10-26T05:05:07;7.40;;;4.47;;
65377;SDS011;51982;51.042;13.806;2022-10-26T05:07:32;8.23;;;4.63;;
65377;SDS011;51982;51.042;13.806;2022-10-26T05:09:58;8.80;;;4.28;;
65377;SDS011;51982;51.042;13.806;2022-10-26T05:12:23;7.65;;;4.43;;
65377;SDS011;51982;51.042;13.806;2022-10-26T05:14:48;7.32;;;4.55;;
65377;SDS011;51982;51.042;13.806;2022-10-26T05:17:13;7.97;;;4.30;;
65377;SDS011;51982;51.042;13.806;2022-10-26T05:19:39;7.28;;;4.25;;
65377;SDS011;51982;51.042;13.806;2022-10-26T05:22:04;7.35;;;4.55;;
65377;SDS011;51982;51.042;13.806;2022-10-26T05:24:29;9.57;;;5.00;;
65377;SDS011;51982;51.042;13.806;2022-10-26T05:26:55;7.30;;;4.50;;
65377;SDS011;51982;51.042;13.806;2022-10-26T05:29:20;12.02;;;5.93;;
65377;SDS011;51982;51.042;13.806;2022-10-26T05:31:45;10.32;;;5.70;;
65377;SDS011;51982;51.042;13.806;2022-10-26T05:34:10;9.80;;;5.45;;
65377;SDS011;51982;51.042;13.806;2022-10-26T05:36:36;10.95;;;5.07;;
65377;SDS011;51982;51.042;13.806;2022-10-26T05:39:01;9.43;;;5.03;;
65377;SDS011;51982;51.042;13.806;2022-10-26T05:41:27;9.10;;;4.63;;
65377;SDS011;51982;51.042;13.806;2022-10-26T05:43:52;8.20;;;4.68;;
65377;SDS011;51982;51.042;13.806;2022-10-26T05:46:18;14.88;;;5.20;;
65377;SDS011;51982;51.042;13.806;2022-10-26T05:48:43;8.80;;;4.85;;
65377;SDS011;51982;51.042;13.806;2022-10-26T05:51:08;14.75;;;5.25;;
65377;SDS011;51982;51.042;13.806;2022-10-26T05:53:34;7.40;;;5.07;;
65377;SDS011;51982;51.042;13.806;2022-10-26T05:56:00;11.40;;;4.93;;
65377;SDS011;51982;51.042;13.806;2022-10-26T05:58:25;7.60;;;4.90;;
65377;SDS011;51982;51.042;13.806;2022-10-26T06:01:01;13.25;;;5.00;;
65377;SDS011;51982;51.042;13.806;2022-10-26T06:06:21;13.40;;;5.40;;
65377;SDS011;51982;51.042;13.806;2022-10-26T06:08:46;10.05;;;5.70;;
65377;SDS011;51982;51.042;13.806;2022-10-26T06:11:12;12.45;;;5.80;;
65377;SDS011;51982;51.042;13.806;2022-10-26T06:13:38;8.15;;;5.28;;
65377;SDS011;51982;51.042;13.806;2022-10-26T06:27:05;8.43;;;5.00;;
65377;SDS011;51982;51.042;13.806;2022-10-26T06:29:49;9.20;;;5.35;;
65377;SDS011;51982;51.042;13.806;2022-10-26T06:32:20;8.50;;;4.97;;
65377;SDS011;51982;51.042;13.806;2022-10-26T06:34:49;11.13;;;5.28;;
65377;SDS011;51982;51.042;13.806;2022-10-26T06:37:19;11.93;;;4.95;;
65377;SDS011;51982;51.042;13.806;2022-10-26T06:39:45;12.07;;;5.28;;
65377;SDS011;51982;51.042;13.806;2022-10-26T06:42:13;8.20;;;5.05;;
65377;SDS011;51982;51.042;13.806;2022-10-26T06:44:39;8.50;;;4.72;;
65377;SDS011;51982;51.042;13.806;2022-10-26T06:47:05;12.55;;;5.25;;
65377;SDS011;51982;51.042;13.806;2022-10-26T06:52:43;10.13;;;4.80;;
65377;SDS011;51982;51.042;13.806;2022-10-26T06:55:13;13.00;;;5.13;;
65377;SDS011;51982;51.042;13.806;2022-10-26T06:57:39;8.48;;;4.85;;
65377;SDS011;51982;51.042;13.806;2022-10-26T07:02:39;12.38;;;4.82;;
65377;SDS011;51982;51.042;13.806;2022-10-26T07:05:04;8.45;;;5.05;;
65377;SDS011;51982;51.042;13.806;2022-10-26T07:10:40;10.20;;;5.13;;
65377;SDS011;51982;51.042;13.806;2022-10-26T07:13:07;12.73;;;4.88;;
65377;SDS011;51982;51.042;13.806;2022-10-26T07:15:34;7.55;;;4.50;;
65377;SDS011;51982;51.042;13.806;2022-10-26T07:18:00;9.85;;;4.82;;
65377;SDS011;51982;51.042;13.806;2022-10-26T07:20:29;11.02;;;5.25;;
65377;SDS011;51982;51.042;13.806;2022-10-26T07:22:55;8.60;;;4.93;;
65377;SDS011;51982;51.042;13.806;2022-10-26T07:25:21;9.73;;;4.78;;
65377;SDS011;51982;51.042;13.806;2022-10-26T07:27:47;11.32;;;4.60;;
65377;SDS011;51982;51.042;13.806;2022-10-26T07:30:13;8.55;;;4.70;;
65377;SDS011;51982;51.042;13.806;2022-10-26T07:32:38;12.05;;;5.32;;
65377;SDS011;51982;51.042;13.806;2022-10-26T07:35:03;7.10;;;4.57;;
65377;SDS011;51982;51.042;13.806;2022-10-26T07:37:29;7.32;;;4.90;;
65377;SDS011;51982;51.042;13.806;2022-10-26T07:39:54;12.52;;;4.95;;
65377;SDS011;51982;51.042;13.806;2022-10-26T07:42:20;9.45;;;4.75;;
65377;SDS011;51982;51.042;13.806;2022-10-26T07:44:45;8.88;;;4.60;;
65377;SDS011;51982;51.042;13.806;2022-10-26T07:47:10;8.75;;;5.15;;
65377;SDS011;51982;51.042;13.806;2022-10-26T07:49:36;9.32;;;4.82;;
65377;SDS011;51982;51.042;13.806;2022-10-26T07:52:01;9.05;;;5.10;;
65377;SDS011;51982;51.042;13.806;2022-10-26T07:54:26;8.85;;;5.10;;
65377;SDS011;51982;51.042;13.806;2022-10-26T07:56:51;8.23;;;4.63;;
65377;SDS011;51982;51.042;13.806;2022-10-26T07:59:17;11.00;;;5.03;;
65377;SDS011;51982;51.042;13.806;2022-10-26T08:01:42;7.65;;;4.57;;
65377;SDS011;51982;51.042;13.806;2022-10-26T08:04:08;8.73;;;5.20;;
65377;SDS011;51982;51.042;13.806;2022-10-26T08:06:34;8.23;;;5.18;;
65377;SDS011;51982;51.042;13.806;2022-10-26T08:08:59;9.27;;;5.25;;
65377;SDS011;51982;51.042;13.806;2022-10-26T08:11:24;9.15;;;5.38;;
65377;SDS011;51982;51.042;13.806;2022-10-26T08:13:52;7.32;;;5.10;;
65377;SDS011;51982;51.042;13.806;2022-10-26T08:16:18;8.65;;;5.18;;
65377;SDS011;51982;51.042;13.806;2022-10-26T08:18:46;9.32;;;5.20;;
65377;SDS011;51982;51.042;13.806;2022-10-26T08:21:12;9.98;;;5.03;;
65377;SDS011;51982;51.042;13.806;2022-10-26T08:23:38;13.15;;;5.43;;
65377;SDS011;51982;51.042;13.806;2022-10-26T08:26:07;8.40;;;4.78;;
65377;SDS011;51982;51.042;13.806;2022-10-26T08:28:35;8.05;;;4.30;;
65377;SDS011;51982;51.042;13.806;2022-10-26T08:31:01;6.70;;;4.57;;
65377;SDS011;51982;51.042;13.806;2022-10-26T08:33:26;9.35;;;4.75;;
65377;SDS011;51982;51.042;13.806;2022-10-26T08:35:55;8.73;;;4.82;;
65377;SDS011;51982;51.042;13.806;2022-10-26T08:38:22;7.43;;;4.28;;
65377;SDS011;51982;51.042;13.806;2022-10-26T08:40:47;11.07;;;4.75;;
65377;SDS011;51982;51.042;13.806;2022-10-26T08:43:18;9.65;;;4.00;;
65377;SDS011;51982;51.042;13.806;2022-10-26T08:48:37;9.75;;;4.38;;
65377;SDS011;51982;51.042;13.806;2022-10-26T08:51:07;7.97;;;4.50;;
65377;SDS011;51982;51.042;13.806;2022-10-26T08:56:45;13.23;;;4.30;;
65377;SDS011;51982;51.042;13.806;2022-10-26T08:59:23;5.82;;;3.72;;
65377;SDS011;51982;51.042;13.806;2022-10-26T09:01:54;8.50;;;3.92;;
65377;SDS011;51982;51.042;13.806;2022-10-26T09:04:21;7.32;;;3.85;;
65377;SDS011;51982;51.042;13.806;2022-10-26T09:07:27;12.18;;;4.35;;
65377;SDS011;51982;51.042;13.806;2022-10-26T09:25:43;9.50;;;4.22;;
65377;SDS011;51982;51.042;13.806;2022-10-26T09:28:14;5.47;;;3.78;;
65377;SDS011;51982;51.042;13.806;2022-10-26T09:30:45;6.97;;;4.10;;
65377;SDS011;51982;51.042;13.806;2022-10-26T09:33:15;9.02;;;4.00;;
65377;SDS011;51982;51.042;13.806;2022-10-26T09:38:19;8.30;;;4.65;;
65377;SDS011;51982;51.042;13.806;2022-10-26T09:40:55;10.52;;;4.18;;
65377;SDS011;51982;51.042;13.806;2022-10-26T09:43:42;11.13;;;4.28;;
65377;SDS011;51982;51.042;13.806;2022-10-26T09:46:11;9.77;;;4.13;;
65377;SDS011;51982;51.042;13.806;2022-10-26T09:51:14;12.57;;;4.15;;
65377;SDS011;51982;51.042;13.806;2022-10-26T09:53:40;7.60;;;4.32;;
65377;SDS011;51982;51.042;13.806;2022-10-26T09:56:09;9.20;;;4.43;;
65377;SDS011;51982;51.042;13.806;2022-10-26T09:58:47;6.43;;;4.20;;
65377;SDS011;51982;51.042;13.806;2022-10-26T10:06:36;6.95;;;4.50;;
65377;SDS011;51982;51.042;13.806;2022-10-26T10:09:03;13.02;;;4.18;;
65377;SDS011;51982;51.042;13.806;2022-10-26T10:11:36;6.88;;;4.07;;
65377;SDS011;51982;51.042;13.806;2022-10-26T10:14:05;6.65;;;3.70;;
65377;SDS011;51982;51.042;13.806;2022-10-26T10:16:32;8.45;;;3.88;;
65377;SDS011;51982;51.042;13.806;2022-10-26T10:18:58;10.35;;;3.85;;
65377;SDS011;51982;51.042;13.806;2022-10-26T10:21:44;9.80;;;4.15;;
65377;SDS011;51982;51.042;13.806;2022-10-26T10:24:31;7.03;;;3.50;;
65377;SDS011;51982;51.042;13.806;2022-10-26T10:27:00;10.80;;;3.15;;
65377;SDS011;51982;51.042;13.806;2022-10-26T10:29:28;6.40;;;3.53;;
65377;SDS011;51982;51.042;13.806;2022-10-26T10:31:57;9.88;;;3.15;;
65377;SDS011;51982;51.042;13.806;2022-10-26T10:34:24;6.93;;;3.33;;
65377;SDS011;51982;51.042;13.806;2022-10-26T10:36:49;6.25;;;2.95;;
65377;SDS011;51982;51.042;13.806;2022-10-26T10:39:57;5.65;;;2.88;;
65377;SDS011;51982;51.042;13.806;2022-10-26T10:42:21;6.18;;;3.00;;
65377;SDS011;51982;51.042;13.806;2022-10-26T10:44:52;5.85;;;2.78;;
65377;SDS011;51982;51.042;13.806;2022-10-26T10:47:23;7.05;;;2.60;;
65377;SDS011;51982;51.042;13.806;2022-10-26T10:52:38;8.32;;;2.13;;
65377;SDS011;51982;51.042;13.806;2022-10-26T10:55:08;5.00;;;2.30;;
65377;SDS011;51982;51.042;13.806;2022-10-26T11:00:36;4.43;;;2.17;;
65377;SDS011;51982;51.042;13.806;2022-10-26T11:08:55;4.55;;;2.90;;
65377;SDS011;51982;51.042;13.806;2022-10-26T11:11:49;3.70;;;1.80;;
65377;SDS011;51982;51.042;13.806;2022-10-26T11:14:21;6.35;;;1.70;;
65377;SDS011;51982;51.042;13.806;2022-10-26T11:16:55;2.60;;;1.50;;
65377;SDS011;51982;51.042;13.806;2022-10-26T11:19:29;4.60;;;1.60;;
65377;SDS011;51982;51.042;13.806;2022-10-26T11:21:59;5.18;;;1.95;;
65377;SDS011;51982;51.042;13.806;2022-10-26T11:27:38;2.88;;;1.38;;
65377;SDS011;51982;51.042;13.806;2022-10-26T11:30:17;2.97;;;1.20;;
65377;SDS011;51982;51.042;13.806;2022-10-26T11:35:28;3.65;;;1.80;;
65377;SDS011;51982;51.042;13.806;2022-10-26T11:38:16;3.78;;;1.40;;
65377;SDS011;51982;51.042;13.806;2022-10-26T11:40:52;5.57;;;1.38;;
65377;SDS011;51982;51.042;13.806;2022-10-26T11:43:24;3.38;;;1.45;;
65377;SDS011;51982;51.042;13.806;2022-10-26T11:51:57;3.13;;;1.30;;
65377;SDS011;51982;51.042;13.806;2022-10-26T11:57:08;8.05;;;1.52;;
65377;SDS011;51982;51.042;13.806;2022-10-26T11:59:39;2.10;;;1.40;;
65377;SDS011;51982;51.042;13.806;2022-10-26T12:04:40;3.95;;;1.60;;
65377;SDS011;51982;51.042;13.806;2022-10-26T12:07:10;6.10;;;1.73;;
65377;SDS011;51982;51.042;13.806;2022-10-26T12:09:41;3.15;;;1.70;;
65377;SDS011;51982;51.042;13.806;2022-10-26T12:12:11;2.72;;;1.50;;
65377;SDS011;51982;51.042;13.806;2022-10-26T12:14:46;6.15;;;1.50;;
65377;SDS011;51982;51.042;13.806;2022-10-26T12:17:25;3.88;;;1.38;;
65377;SDS011;51982;51.042;13.806;2022-10-26T12:20:39;4.07;;;1.70;;
65377;SDS011;51982;51.042;13.806;2022-10-26T12:23:02;2.70;;;1.50;;
65377;SDS011;51982;51.042;13.806;2022-10-26T12:25:28;5.07;;;1.50;;
65377;SDS011;51982;51.042;13.806;2022-10-26T12:27:54;5.47;;;1.67;;
65377;SDS011;51982;51.042;13.806;2022-10-26T12:37:59;5.53;;;1.67;;
65377;SDS011;51982;51.042;13.806;2022-10-26T12:45:37;2.65;;;0.75;;
65377;SDS011;51982;51.042;13.806;2022-10-26T12:48:03;1.45;;;0.93;;
65377;SDS011;51982;51.042;13.806;2022-10-26T12:50:29;2.22;;;0.90;;
65377;SDS011;51982;51.042;13.806;2022-10-26T12:53:04;1.85;;;0.82;;
65377;SDS011;51982;51.042;13.806;2022-10-26T13:03:34;2.67;;;1.00;;
65377;SDS011;51982;51.042;13.806;2022-10-26T13:09:13;2.78;;;1.00;;
65377;SDS011;51982;51.042;13.806;2022-10-26T13:11:47;0.88;;;0.70;;
65377;SDS011;51982;51.042;13.806;2022-10-26T13:14:20;1.88;;;0.82;;
65377;SDS011;51982;51.042;13.806;2022-10-26T13:16:53;1.65;;;0.80;;
65377;SDS011;51982;51.042;13.806;2022-10-26T13:19:53;4.95;;;1.30;;
65377;SDS011;51982;51.042;13.806;2022-10-26T13:22:19;5.00;;;1.55;;
65377;SDS011;51982;51.042;13.806;2022-10-26T13:24:50;3.95;;;1.75;;
65377;SDS011;51982;51.042;13.806;2022-10-26T13:32:26;4.50;;;2.00;;
65377;SDS011;51982;51.042;13.806;2022-10-26T13:34:53;3.88;;;1.80;;
65377;SDS011;51982;51.042;13.806;2022-10-26T13:37:23;3.70;;;2.03;;
65377;SDS011;51982;51.042;13.806;2022-10-26T13:39:53;3.08;;;1.58;;
65377;SDS011;51982;51.042;13.806;2022-10-26T13:42:23;2.78;;;1.63;;
65377;SDS011;51982;51.042;13.806;2022-10-26T13:47:24;3.55;;;1.70;;
65377;SDS011;51982;51.042;13.806;2022-10-26T13:49:53;6.13;;;1.70;;
65377;SDS011;51982;51.042;13.806;2022-10-26T13:52:26;4.78;;;1.85;;
65377;SDS011;51982;51.042;13.806;2022-10-26T13:54:58;4.20;;;1.98;;
65377;SDS011;51982;51.042;13.806;2022-10-26T13:57:38;5.35;;;1.70;;
65377;SDS011;51982;51.042;13.806;2022-10-26T14:00:07;3.90;;;1.80;;
65377;SDS011;51982;51.042;13.806;2022-10-26T14:02:44;6.38;;;2.00;;
65377;SDS011;51982;51.042;13.806;2022-10-26T14:05:11;9.27;;;2.40;;
65377;SDS011;51982;51.042;13.806;2022-10-26T14:07:49;5.22;;;2.00;;
65377;SDS011;51982;51.042;13.806;2022-10-26T14:10:52;6.88;;;1.98;;
65377;SDS011;51982;51.042;13.806;2022-10-26T14:13:17;3.85;;;2.08;;
65377;SDS011;51982;51.042;13.806;2022-10-26T14:15:47;5.43;;;1.90;;
65377;SDS011;51982;51.042;13.806;2022-10-26T14:18:20;5.47;;;1.90;;
65377;SDS011;51982;51.042;13.806;2022-10-26T14:20:49;6.35;;;1.90;;
65377;SDS011;51982;51.042;13.806;2022-10-26T14:23:36;3.75;;;2.03;;
65377;SDS011;51982;51.042;13.806;2022-10-26T14:26:16;4.28;;;1.75;;
65377;SDS011;51982;51.042;13.806;2022-10-26T14:28:45;8.30;;;1.73;;
65377;SDS011;51982;51.042;13.806;2022-10-26T14:31:21;2.88;;;1.90;;
65377;SDS011;51982;51.042;13.806;2022-10-26T14:33:48;4.90;;;1.85;;
65377;SDS011;51982;51.042;13.806;2022-10-26T14:36:14;11.00;;;2.28;;
65377;SDS011;51982;51.042;13.806;2022-10-26T14:38:42;5.20;;;1.98;;
65377;SDS011;51982;51.042;13.806;2022-10-26T14:41:09;5.25;;;1.80;;
65377;SDS011;51982;51.042;13.806;2022-10-26T14:43:37;4.60;;;1.70;;
65377;SDS011;51982;51.042;13.806;2022-10-26T14:46:03;6.55;;;2.10;;
65377;SDS011;51982;51.042;13.806;2022-10-26T14:48:29;6.95;;;2.15;;
65377;SDS011;51982;51.042;13.806;2022-10-26T14:50:56;4.20;;;2.38;;
65377;SDS011;51982;51.042;13.806;2022-10-26T14:53:25;5.47;;;2.13;;
65377;SDS011;51982;51.042;13.806;2022-10-26T14:55:56;5.35;;;2.10;;
65377;SDS011;51982;51.042;13.806;2022-10-26T14:58:28;5.38;;;2.38;;
65377;SDS011;51982;51.042;13.806;2022-10-26T15:01:13;3.80;;;2.20;;
65377;SDS011;51982;51.042;13.806;2022-10-26T15:08:58;5.50;;;2.40;;
65377;SDS011;51982;51.042;13.806;2022-10-26T15:11:25;8.15;;;2.55;;
65377;SDS011;51982;51.042;13.806;2022-10-26T15:13:51;6.10;;;2.33;;
65377;SDS011;51982;51.042;13.806;2022-10-26T15:16:22;7.15;;;2.72;;
65377;SDS011;51982;51.042;13.806;2022-10-26T15:18:53;6.05;;;2.50;;
65377;SDS011;51982;51.042;13.806;2022-10-26T15:21:33;5.25;;;2.60;;
65377;SDS011;51982;51.042;13.806;2022-10-26T15:24:27;4.78;;;2.80;;
65377;SDS011;51982;51.042;13.806;2022-10-26T15:26:53;5.22;;;2.70;;
65377;SDS011;51982;51.042;13.806;2022-10-26T15:32:27;8.38;;;2.92;;
65377;SDS011;51982;51.042;13.806;2022-10-26T15:37:53;6.95;;;3.50;;
65377;SDS011;51982;51.042;13.806;2022-10-26T15:40:19;10.55;;;4.00;;
65377;SDS011;51982;51.042;13.806;2022-10-26T15:42:49;9.57;;;4.05;;
65377;SDS011;51982;51.042;13.806;2022-10-26T15:45:19;7.17;;;3.37;;
65377;SDS011;51982;51.042;13.806;2022-10-26T15:47:47;8.05;;;3.13;;
65377;SDS011;51982;51.042;13.806;2022-10-26T15:50:14;7.18;;;4.25;;
65377;SDS011;51982;51.042;13.806;2022-10-26T15:52:41;13.13;;;4.28;;
65377;SDS011;51982;51.042;13.806;2022-10-26T15:55:07;7.80;;;4.07;;
65377;SDS011;51982;51.042;13.806;2022-10-26T15:57:34;10.40;;;4.22;;
65377;SDS011;51982;51.042;13.806;2022-10-26T15:59:59;7.30;;;3.67;;
65377;SDS011;51982;51.042;13.806;2022-10-26T16:02:25;10.25;;;3.80;;
65377;SDS011;51982;51.042;13.806;2022-10-26T16:04:51;8.43;;;4.53;;
65377;SDS011;51982;51.042;13.806;2022-10-26T16:07:16;6.50;;;3.80;;
65377;SDS011;51982;51.042;13.806;2022-10-26T16:09:42;8.95;;;4.20;;
65377;SDS011;51982;51.042;13.806;2022-10-26T16:12:11;9.77;;;4.05;;
65377;SDS011;51982;51.042;13.806;2022-10-26T16:14:37;16.10;;;4.63;;
65377;SDS011;51982;51.042;13.806;2022-10-26T16:17:04;8.45;;;4.20;;
65377;SDS011;51982;51.042;13.806;2022-10-26T16:19:30;7.72;;;4.40;;
65377;SDS011;51982;51.042;13.806;2022-10-26T16:21:55;8.02;;;4.40;;
65377;SDS011;51982;51.042;13.806;2022-10-26T16:24:21;7.53;;;4.60;;
65377;SDS011;51982;51.042;13.806;2022-10-26T16:26:46;9.95;;;4.60;;
65377;SDS011;51982;51.042;13.806;2022-10-26T16:29:12;9.80;;;4.38;;
65377;SDS011;51982;51.042;13.806;2022-10-26T16:31:37;11.70;;;4.18;;
65377;SDS011;51982;51.042;13.806;2022-10-26T16:34:02;11.07;;;4.93;;
65377;SDS011;51982;51.042;13.806;2022-10-26T16:36:28;9.38;;;4.60;;
65377;SDS011;51982;51.042;13.806;2022-10-26T16:38:53;10.60;;;5.72;;
65377;SDS011;51982;51.042;13.806;2022-10-26T16:41:19;11.98;;;5.88;;
65377;SDS011;51982;51.042;13.806;2022-10-26T16:43:44;10.82;;;5.80;;
65377;SDS011;51982;51.042;13.806;2022-10-26T16:46:14;10.65;;;5.00;;
65377;SDS011;51982;51.042;13.806;2022-10-26T16:48:41;8.95;;;4.50;;
65377;SDS011;51982;51.042;13.806;2022-10-26T16:51:08;12.68;;;4.97;;
65377;SDS011;51982;51.042;13.806;2022-10-26T16:53:34;13.00;;;4.78;;
65377;SDS011;51982;51.042;13.806;2022-10-26T16:56:01;9.13;;;4.63;;
65377;SDS011;51982;51.042;13.806;2022-10-26T16:58:30;9.90;;;5.32;;
65377;SDS011;51982;51.042;13.806;2022-10-26T17:00:55;14.07;;;5.03;;
65377;SDS011;51982;51.042;13.806;2022-10-26T17:03:21;12.95;;;5.10;;
65377;SDS011;51982;51.042;13.806;2022-10-26T17:05:46;13.75;;;4.97;;
65377;SDS011;51982;51.042;13.806;2022-10-26T17:08:11;9.95;;;5.20;;
65377;SDS011;51982;51.042;13.806;2022-10-26T17:10:37;11.93;;;5.18;;
65377;SDS011;51982;51.042;13.806;2022-10-26T17:13:02;10.38;;;5.53;;